Latest Weather Observations for Coolangatta

IDN60801

Issued at 10:32 am EST Friday 28 July 2017 (issued every 30 minutes, with the page automatically refreshed every 10 minutes)

About weather observations | Map of weather stations | Latest weather observations for NSW | Other Formats
Station Details ID: 040717 Name: COOLANGATTA Lat: -28.17 Lon: 153.51 Height: 4.0 m
Data from the previous 72 hours. | See also: Recent months at Coolangatta
Date/Time
EST
Temp
°C
App
Temp
°C
Dew
Point
°C
Rel
Hum
%
Delta-T
°C
Wind Press
QNH
hPa
Press
MSL
hPa
Rain since
9am
mm
Dir  Spd
km/h
Gust
km/h
Spd
kts
Gust
kts
28/10:30am 20.6 18.1 11.0 54 5.2 WNW 15 20 8 11 1022.6 1022.6 0.0
28/10:00am 19.8 17.4 10.2 54 5.1 WNW 13 19 7 10 1022.7 1022.7 0.0
28/09:30am 20.2 17.9 10.6 54 5.2 NW 13 20 7 11 1022.8 1022.8 0.0
28/09:00am 19.1 16.8 10.6 58 4.6 WNW 13 19 7 10 1022.8 1022.8 0.0
28/08:30am 17.5 15.3 12.0 70 3.0 WNW 15 20 8 11 1022.8 1022.8 0.0
28/08:00am 15.3 15.1 13.7 90 0.9 WSW 7 9 4 5 1022.9 1022.9 0.0
28/07:30am 11.6 12.0 11.4 99 0.1 CALM 0 0 0 0 1023.3 1023.3 0.0
28/07:06am 9.7 9.2 9.4 98 0.1 SSW 2 6 1 3 1023.2 1023.2 0.0
28/07:00am 9.3 7.9 9.0 98 0.1 SSW 6 7 3 4 1023.2 1023.2 0.0
28/06:45am 9.1 8.3 8.3 95 0.4 SSW 2 6 1 3 1023.1 1023.1 0.0
28/06:30am 9.9 8.7 9.6 98 0.1 SW 6 9 3 5 1023.1 1023.1 0.0
28/06:00am 9.6 8.7 9.1 97 0.2 SW 4 7 2 4 1022.8 1022.8 0.0
28/05:30am 10.2 9.1 9.9 98 0.2 SW 6 6 3 3 1022.6 1022.6 0.0
28/05:00am 9.4 8.4 8.8 96 0.3 SW 4 7 2 4 1022.4 1022.4 0.0
28/04:30am 9.5 8.4 8.6 94 0.4 SW 4 7 2 4 1022.2 1022.2 0.0
28/04:00am 10.3 9.8 9.5 95 0.4 SW 2 6 1 3 1022.6 1022.6 0.0
28/03:30am 11.0 10.0 10.4 96 0.3 SSW 6 7 3 4 1022.9 1022.9 0.0
28/03:00am 9.8 8.8 9.0 95 0.4 SW 4 7 2 4 1023.0 1023.0 0.0
28/02:30am 10.5 9.7 9.7 95 0.4 SW 4 7 2 4 1023.2 1023.2 0.0
28/02:00am 9.7 8.3 8.8 94 0.4 SW 6 9 3 5 1023.3 1023.3 0.0
28/01:30am 10.4 9.2 9.6 95 0.4 SW 6 6 3 3 1023.6 1023.6 0.0
28/01:00am 10.5 9.3 9.7 95 0.4 SW 6 7 3 4 1023.5 1023.5 0.0
28/12:30am 10.4 9.5 9.3 93 0.5 SW 4 7 2 4 1023.9 1023.9 0.0
28/12:00am 10.8 10.8 9.7 93 0.6 CALM 0 0 0 0 1024.3 1024.3 0.0
 
Date/Time
EST
Temp
°C
App
Temp
°C
Dew
Point
°C
Rel
Hum
%
Delta-T
°C
Wind Press
QNH
hPa
Press
MSL
hPa
Rain since
9am
mm
Dir  Spd
km/h
Gust
km/h
Spd
kts
Gust
kts
27/11:30pm 10.8 10.4 9.6 92 0.6 SW 2 6 1 3 1024.1 1024.1 0.0
27/11:00pm 10.7 9.9 9.5 92 0.6 SW 4 6 2 3 1024.2 1024.2 0.0
27/10:30pm 11.3 10.6 10.0 92 0.7 SW 4 7 2 4 1024.2 1024.2 0.0
27/10:00pm 11.3 11.3 9.9 91 0.7 CALM 0 0 0 0 1024.0 1024.0 0.0
27/09:30pm 11.2 10.0 9.6 90 0.8 SW 6 7 3 4 1024.1 1024.1 0.0
27/09:00pm 11.4 10.3 10.0 91 0.7 SW 6 7 3 4 1024.2 1024.2 0.0
27/08:30pm 12.1 11.5 10.3 89 0.9 SW 4 7 2 4 1023.9 1023.9 0.0
27/08:00pm 12.3 11.2 9.9 85 1.2 WSW 6 7 3 4 1024.1 1024.1 0.0
27/07:30pm 13.0 12.0 10.2 83 1.4 WSW 6 7 3 4 1024.0 1024.0 0.0
27/07:00pm 12.9 11.7 9.4 79 1.8 SSW 6 7 3 4 1023.8 1023.8 0.0
27/06:30pm 13.8 12.5 9.3 74 2.3 S 6 7 3 4 1023.6 1023.6 0.0
27/06:00pm 16.6 15.2 9.5 63 3.7 S 7 9 4 5 1023.2 1023.2 0.0
27/05:30pm 17.3 15.8 9.2 59 4.2 S 7 11 4 6 1023.0 1023.0 0.0
27/05:00pm 18.6 15.9 8.8 53 5.1 SSE 13 15 7 8 1022.7 1022.7 0.0
27/04:30pm 19.4 15.9 8.7 50 5.6 SE 17 24 9 13 1022.5 1022.5 0.0
27/04:00pm 20.1 15.9 8.4 47 6.1 SE 20 26 11 14 1022.4 1022.4 0.0
27/03:30pm 20.6 16.4 8.3 45 6.4 SE 20 28 11 15 1022.5 1022.5 0.0
27/03:00pm 20.9 16.1 8.9 46 6.3 SE 24 30 13 16 1022.2 1022.2 0.0
27/02:30pm 21.2 15.8 8.1 43 6.8 SE 26 33 14 18 1022.4 1022.4 0.0
27/02:00pm 21.2 16.6 8.1 43 6.8 SE 22 32 12 17 1022.2 1022.2 0.0
27/01:30pm 21.6 16.7 8.5 43 6.9 SE 24 33 13 18 1022.0 1022.0 0.0
27/01:00pm 21.2 15.8 7.8 42 6.9 SE 26 35 14 19 1022.3 1022.3 0.0
27/12:30pm 21.5 16.6 8.4 43 6.9 SE 24 32 13 17 1022.5 1022.5 0.0
27/12:00pm 21.6 17.6 8.1 42 7.0 SSE 19 28 10 15 1023.0 1023.0 0.0
27/11:30am 22.0 18.0 8.9 43 7.0 SSE 20 32 11 17 1023.4 1023.4 0.0
27/11:00am 21.2 17.5 8.1 43 6.8 S 17 24 9 13 1023.8 1023.8 0.0
27/10:30am 20.5 16.2 7.2 42 6.8 S 19 30 10 16 1024.1 1024.1 0.0
27/10:00am 20.4 16.3 6.4 40 7.0 SSW 17 24 9 13 1024.0 1024.0 0.0
27/09:30am 19.7 15.3 4.6 37 7.3 SSW 17 24 9 13 1023.8 1023.8 0.0
27/09:00am 19.1 14.9 3.7 36 7.2 SSW 15 24 8 13 1023.6 1023.6 0.0
27/08:30am 18.1 13.7 5.0 42 6.3 SSW 17 24 9 13 1023.4 1023.4 0.0
27/08:00am 16.5 13.6 6.3 51 5.0 SW 11 15 6 8 1023.2 1023.2 0.0
27/07:30am 13.3 11.1 7.7 69 2.7 SSW 9 13 5 7 1023.0 1023.0 0.0
27/07:00am 11.1 8.3 6.8 75 2.0 SW 11 15 6 8 1022.5 1022.5 0.0
27/06:30am 7.5 6.5 5.6 88 0.8 CALM 0 6 0 3 1022.2 1022.2 0.0
27/06:00am 7.3 5.3 6.1 92 0.5 SSE 6 7 3 4 1021.6 1021.6 0.0
27/05:30am 7.4 4.8 6.3 93 0.5 SW 9 11 5 6 1021.2 1021.2 0.0
27/05:00am 7.3 5.5 5.6 89 0.8 SSE 4 7 2 4 1020.9 1020.9 0.0
27/04:30am 8.3 6.4 6.9 91 0.6 SSW 6 7 3 4 1020.4 1020.4 0.0
27/04:00am 8.7 7.1 7.8 94 0.4 SW 6 7 3 4 1020.2 1020.2 0.0
27/03:30am 7.2 5.9 6.1 93 0.5 SW 2 6 1 3 1020.1 1020.1 0.0
27/03:00am 9.1 7.5 8.0 93 0.5 SSW 6 7 3 4 1020.3 1020.3 0.0
27/02:30am 7.2 5.5 5.8 91 0.6 SW 4 9 2 5 1020.2 1020.2 0.0
27/02:00am 8.5 7.5 7.4 93 0.5 SW 2 7 1 4 1020.1 1020.1 0.0
27/01:30am 8.6 6.7 7.5 93 0.5 SW 7 9 4 5 1020.0 1020.0 0.0
27/01:00am 8.5 7.0 7.0 90 0.7 SW 4 7 2 4 1020.2 1020.2 0.0
27/12:30am 8.8 7.9 6.1 83 1.2 CALM 0 0 0 0 1020.2 1020.2 0.0
27/12:00am 10.6 9.9 8.5 87 1.0 SW 2 9 1 5 1020.1 1020.1 0.0
 
Date/Time
EST
Temp
°C
App
Temp
°C
Dew
Point
°C
Rel
Hum
%
Delta-T
°C
Wind Press
QNH
hPa
Press
MSL
hPa
Rain since
9am
mm
Dir  Spd
km/h
Gust
km/h
Spd
kts
Gust
kts
26/11:30pm 10.4 8.9 8.5 88 0.9 SW 6 9 3 5 1020.3 1020.3 0.0
26/11:00pm 9.4 7.4 7.3 87 1.0 WSW 7 11 4 6 1020.4 1020.4 0.0
26/10:30pm 9.5 9.1 8.3 92 0.6 CALM 0 7 0 4 1020.4 1020.4 0.0
26/10:00pm 9.5 8.2 7.6 88 0.9 W 4 9 2 5 1020.2 1020.2 0.0
26/09:30pm 11.4 10.0 9.7 89 0.9 WSW 7 13 4 7 1020.1 1020.1 0.0
26/09:00pm 11.1 10.2 9.4 89 0.8 WNW 4 9 2 5 1019.9 1019.9 0.0
26/08:30pm 12.0 11.0 10.2 89 0.9 WSW 6 7 3 4 1019.9 1019.9 0.0
26/08:00pm 12.6 11.5 10.1 85 1.3 WSW 6 9 3 5 1019.5 1019.5 0.0
26/07:30pm 13.4 12.1 11.3 87 1.1 WSW 9 13 5 7 1019.3 1019.3 0.0
26/07:00pm 13.6 12.5 10.6 82 1.6 WNW 7 9 4 5 1019.3 1019.3 0.0
26/06:30pm 14.9 14.4 11.9 82 1.6 WSW 6 7 3 4 1019.2 1019.2 0.0
26/06:00pm 15.8 16.2 12.4 80 1.9 SSW 2 6 1 3 1018.8 1018.8 0.0
26/05:30pm 17.2 16.3 12.5 74 2.6 WSW 9 11 5 6 1018.5 1018.5 0.0
26/05:00pm 19.7 19.6 13.2 66 3.7 W 6 7 3 4 1018.4 1018.4 0.0
26/04:30pm 22.2 21.5 11.9 52 5.8 N 7 11 4 6 1018.2 1018.2 0.0
26/04:00pm 22.3 21.7 13.6 58 5.0 NE 9 13 5 7 1018.3 1018.3 0.0
26/03:30pm 22.3 20.7 12.8 55 5.4 NNE 13 17 7 9 1018.2 1018.2 0.0
26/03:00pm 22.3 20.8 13.1 56 5.3 NNE 13 17 7 9 1018.2 1018.2 0.0
26/02:30pm 22.1 20.9 12.9 56 5.3 NNE 11 15 6 8 1018.5 1018.5 0.0
26/02:00pm 21.6 19.7 11.9 54 5.4 NNE 13 17 7 9 1018.7 1018.7 0.0
26/01:30pm 21.9 19.4 11.0 50 6.0 NNE 15 20 8 11 1019.0 1019.0 0.0
26/01:00pm 21.5 18.7 8.7 44 6.7 NNE 13 17 7 9 1019.3 1019.3 0.0
26/12:30pm 21.9 18.0 5.3 34 8.2 NNE 15 17 8 9 1019.7 1019.7 0.0
26/12:00pm 21.4 17.4 4.9 34 8.1 N 15 19 8 10 1020.2 1020.2 0.0
26/11:30am 22.0 18.0 5.0 33 8.4 N 15 17 8 9 1020.9 1020.9 0.0
26/11:00am 21.7 18.2 5.6 35 8.0 N 13 17 7 9 1021.4 1021.4 0.0
26/10:30am 21.2 18.7 6.7 39 7.4 N 9 13 5 7 1021.8 1021.8 0.0
26/10:00am 20.4 18.8 8.1 45 6.4 N 6 9 3 5 1022.1 1022.1 0.0
26/09:30am 18.9 16.7 6.1 43 6.3 NNW 7 9 4 5 1022.4 1022.4 0.0
26/09:00am 16.3 15.8 9.3 63 3.6 W 2 6 1 3 1022.2 1022.2 0.0
26/08:30am 13.2 12.6 7.4 68 2.8 CALM 0 0 0 0 1022.3 1022.3 0.0
26/08:00am 11.0 10.6 8.1 82 1.4 CALM 0 6 0 3 1022.1 1022.1 0.0
26/07:30am 8.9 8.4 7.7 92 0.6 CALM 0 6 0 3 1022.1 1022.1 0.0
26/07:00am 7.1 5.1 6.2 94 0.4 SW 6 7 3 4 1021.9 1021.9 0.0
26/06:30am 7.2 5.2 6.9 98 0.1 SSW 7 9 4 5 1021.9 1021.9 0.0
26/06:00am 5.7 4.6 5.1 96 0.3 CALM 0 0 0 0 1021.6 1021.6 0.0
26/05:30am 7.7 6.7 7.4 98 0.1 SSW 2 7 1 4 1021.4 1021.4 0.0
26/05:00am 6.8 5.2 6.2 96 0.3 SW 4 7 2 4 1021.1 1021.1 0.0
26/04:30am 7.0 5.1 6.6 97 0.2 SW 6 9 3 5 1021.2 1021.2 0.0
26/04:00am 7.6 6.1 7.0 96 0.3 SW 4 6 2 3 1021.1 1021.1 0.0
26/03:30am 6.5 4.4 5.6 94 0.4 SW 6 7 3 4 1021.3 1021.3 0.0
26/03:00am 8.9 8.5 8.3 96 0.3 CALM 0 0 0 0 1021.5 1021.5 0.0
26/02:30am 8.0 6.1 6.9 93 0.5 SW 6 7 3 4 1021.6 1021.6 0.0
26/02:00am 8.9 7.3 8.0 94 0.4 SW 6 7 3 4 1021.7 1021.7 0.0
26/01:30am 8.3 7.6 7.1 92 0.6 CALM 0 0 0 0 1022.0 1022.0 0.0
26/01:00am 9.5 9.1 8.4 93 0.5 CALM 0 0 0 0 1022.1 1022.1 0.0
26/12:30am 9.4 8.2 8.2 92 0.6 SW 4 7 2 4 1022.1 1022.1 0.0
26/12:00am 9.0 7.0 7.3 89 0.8 WSW 7 9 4 5 1022.1 1022.1 0.0
 
Date/Time
EST
Temp
°C
App
Temp
°C
Dew
Point
°C
Rel
Hum
%
Delta-T
°C
Wind Press
QNH
hPa
Press
MSL
hPa
Rain since
9am
mm
Dir  Spd
km/h
Gust
km/h
Spd
kts
Gust
kts
25/11:30pm 9.7 8.2 8.3 91 0.7 SW 6 9 3 5 1022.3 1022.3 0.0
25/11:00pm 9.5 8.7 8.1 91 0.7 SW 2 7 1 4 1022.3 1022.3 0.0
25/10:30pm 9.7 8.1 8.1 90 0.8 SW 6 7 3 4 1022.3 1022.3 0.0
25/10:00pm 10.2 8.6 8.0 86 1.1 WSW 6 7 3 4 1022.2 1022.2 0.0
25/09:30pm 9.7 9.1 7.6 87 1.0 CALM 0 0 0 0 1022.1 1022.1 0.0
25/09:00pm 10.8 9.6 8.0 83 1.4 WSW 4 7 2 4 1022.1 1022.1 0.0
25/08:30pm 11.1 9.7 7.4 78 1.8 SW 4 7 2 4 1022.2 1022.2 0.0
25/08:00pm 11.5 10.2 7.8 78 1.8 SW 4 7 2 4 1022.2 1022.2 0.0
25/07:30pm 12.2 11.1 8.3 77 1.9 SW 4 7 2 4 1022.1 1022.1 0.0
25/07:00pm 12.6 11.0 7.9 73 2.3 SW 6 7 3 4 1021.9 1021.9 0.0
25/06:30pm 13.0 10.9 8.1 72 2.4 WSW 9 13 5 7 1021.8 1021.8 0.0
25/06:00pm 14.2 12.1 8.2 67 3.0 WSW 9 11 5 6 1021.5 1021.5 0.0
25/05:30pm 14.8 13.1 7.6 62 3.6 SE 6 7 3 4 1021.3 1021.3 0.0
25/05:00pm 18.3 16.2 6.5 46 5.8 E 7 9 4 5 1021.1 1021.1 0.0
25/04:30pm 20.1 17.1 6.1 40 7.0 ENE 11 13 6 7 1020.9 1020.9 0.0
25/04:00pm 20.8 18.0 5.2 36 7.7 ENE 9 13 5 7 1020.8 1020.8 0.0
25/03:30pm 20.9 17.9 6.1 38 7.4 ENE 11 17 6 9 1020.7 1020.7 0.0
25/03:00pm 21.1 17.5 5.1 35 7.8 ENE 13 17 7 9 1020.7 1020.7 0.0
25/02:30pm 21.3 17.4 5.2 35 8.0 ENE 15 17 8 9 1020.7 1020.7 0.0
25/02:00pm 21.2 16.8 4.7 34 8.0 ENE 17 20 9 11 1020.9 1020.9 0.0
25/01:30pm 21.4 17.3 4.5 33 8.2 ENE 15 20 8 11 1021.0 1021.0 0.0
25/01:00pm 21.2 17.1 4.3 33 8.2 NE 15 19 8 10 1021.1 1021.1 0.0
25/12:30pm 21.0 17.7 6.5 39 7.3 NNE 13 17 7 9 1021.5 1021.5 0.0
25/12:00pm 21.1 17.8 6.2 38 7.5 NNE 13 17 7 9 1022.1 1022.1 0.0
25/11:30am 21.0 17.8 6.9 40 7.2 NNE 13 15 7 8 1022.6 1022.6 0.0
25/11:00am 21.0 18.4 7.6 42 6.9 NE 11 15 6 8 1023.1 1023.1 0.0

Other Formats:

Comma delimited format used in spreadsheet applications
http://www.bom.gov.au/fwo/IDN60801/IDN60801.94592.axf

JavaScript Object Notation format (JSON) in row-major order
http://www.bom.gov.au/fwo/IDN60801/IDN60801.94592.json